Time;durP1;ratioP1;P1;durP2;ratioP2;P2;SDS_P1;SDS_P2;PMS_P1;PMS_P2;Temp;Humidity;BMP_temperature;BMP_pressure;BME280_temperature;BME280_humidity;BME280_pressure;Samples;Min_cycle;Max_cycle;Signal;HPM_P1;HPM_P2
2021/09/27 00:00:14;;;;;;;2.50;2.40;;;19.30;93.10;;;;;;5073821;28;20024;-71
2021/09/27 00:02:41;;;;;;;2.85;2.50;;;19.40;93.30;;;;;;5075205;28;20141;-70
2021/09/27 00:05:13;;;;;;;2.92;2.70;;;19.00;92.40;;;;;;5074981;28;20020;-69
2021/09/27 00:07:41;;;;;;;2.80;2.55;;;19.00;93.40;;;;;;5074991;28;20412;-69
2021/09/27 00:10:12;;;;;;;3.13;2.45;;;19.70;93.20;;;;;;5075047;28;20031;-68
2021/09/27 00:12:40;;;;;;;3.72;2.50;;;19.70;92.90;;;;;;5074851;28;20040;-69
2021/09/27 00:15:11;;;;;;;3.53;2.50;;;;;;;;;;5074727;28;20668;-69
2021/09/27 00:17:38;;;;;;;2.72;2.40;;;;;;;;;;5074882;28;20020;-69
2021/09/27 00:20:07;;;;;;;3.00;2.47;;;;;;;;;;5074763;28;20028;-69
2021/09/27 00:22:35;;;;;;;2.60;2.40;;;19.50;95.90;;;;;;5074743;28;20025;-69
2021/09/27 00:25:03;;;;;;;2.85;2.40;;;19.40;95.00;;;;;;5074780;28;20020;-69
2021/09/27 00:27:31;;;;;;;2.90;2.45;;;19.80;96.20;;;;;;5073315;28;20036;-69
2021/09/27 00:30:00;;;;;;;2.28;2.08;;;19.60;95.40;;;;;;5073245;28;20107;-71
2021/09/27 00:32:28;;;;;;;4.07;2.00;;;19.40;95.90;;;;;;5074591;28;20024;-70
2021/09/27 00:34:55;;;;;;;2.42;2.10;;;19.40;95.80;;;;;;5074464;28;20412;-69
2021/09/27 00:37:22;;;;;;;2.47;2.20;;;19.20;95.20;;;;;;5074469;28;20070;-68
2021/09/27 00:39:50;;;;;;;2.50;2.30;;;19.30;96.20;;;;;;5073129;28;20021;-69
2021/09/27 00:42:17;;;;;;;5.00;2.83;;;19.50;95.40;;;;;;5074165;28;20025;-69
2021/09/27 00:44:45;;;;;;;3.90;2.50;;;19.90;95.80;;;;;;5074386;28;20047;-71
2021/09/27 00:47:12;;;;;;;2.75;2.20;;;19.60;96.10;;;;;;5073220;28;20029;-69
2021/09/27 00:49:40;;;;;;;3.22;2.25;;;19.60;96.40;;;;;;5074291;28;20055;-70
2021/09/27 00:52:07;;;;;;;2.28;2.15;;;19.40;96.80;;;;;;5072697;28;20128;-68
2021/09/27 00:54:37;;;;;;;2.30;2.00;;;19.40;96.30;;;;;;5072753;28;20457;-68
2021/09/27 00:57:12;;;;;;;3.80;2.40;;;19.30;96.40;;;;;;5074103;28;20021;-68
2021/09/27 00:59:42;;;;;;;2.20;1.98;;;19.50;97.60;;;;;;5073886;28;20055;-69
2021/09/27 01:02:10;;;;;;;3.63;1.90;;;19.40;97.20;;;;;;5074106;28;20056;-69
2021/09/27 01:04:39;;;;;;;2.55;1.88;;;19.60;97.40;;;;;;5073828;28;20115;-70
2021/09/27 01:07:09;;;;;;;3.13;1.77;;;19.40;97.90;;;;;;5073782;28;20099;-70
2021/09/27 01:09:52;;;;;;;2.22;1.80;;;19.70;97.70;;;;;;5074213;28;20419;-70
2021/09/27 01:12:49;;;;;;;3.67;1.98;;;19.50;97.70;;;;;;5073493;28;20047;-69
2021/09/27 01:15:45;;;;;;;4.07;2.25;;;19.80;97.80;;;;;;5073413;28;20055;-69
2021/09/27 01:18:39;;;;;;;2.20;2.00;;;19.50;98.60;;;;;;5059034;28;20139;-70
2021/09/27 01:21:09;;;;;;;2.15;1.90;;;19.60;99.20;;;;;;5072391;28;20020;-69
2021/09/27 01:23:55;;;;;;;3.40;2.30;;;19.90;99.10;;;;;;5073782;28;20103;-69
2021/09/27 01:26:46;;;;;;;4.45;2.30;;;19.50;99.70;;;;;;5073483;28;20481;-70
2021/09/27 01:29:31;;;;;;;5.65;2.50;;;19.50;99.90;;;;;;5073474;28;20024;-70
2021/09/27 01:32:25;;;;;;;3.83;2.10;;;19.00;99.90;;;;;;5073324;28;20052;-70
2021/09/27 01:35:14;;;;;;;4.25;1.75;;;18.80;99.90;;;;;;5072008;28;20028;-70
2021/09/27 01:38:05;;;;;;;2.30;1.90;;;18.80;99.90;;;;;;5072015;28;20496;-71
2021/09/27 01:40:55;;;;;;;3.28;2.10;;;18.90;99.90;;;;;;5073331;28;20489;-70
2021/09/27 01:43:42;;;;;;;5.20;2.75;;;19.30;99.80;;;;;;5073361;28;20073;-70
2021/09/27 01:46:42;;;;;;;2.40;2.17;;;20.00;99.10;;;;;;5073254;28;20511;-70
2021/09/27 01:49:16;;;;;;;3.72;2.08;;;20.20;99.00;;;;;;5071878;28;20121;-70
2021/09/27 01:51:56;;;;;;;3.47;2.22;;;20.10;98.80;;;;;;5072958;28;20021;-70
2021/09/27 01:54:42;;;;;;;4.32;2.40;;;19.70;98.30;;;;;;5072412;28;20542;-70
2021/09/27 01:57:28;;;;;;;3.40;2.10;;;19.10;99.10;;;;;;5073443;28;20021;-70
2021/09/27 01:59:58;;;;;;;4.45;2.20;;;18.90;98.80;;;;;;5073160;28;20092;-69
2021/09/27 02:02:46;;;;;;;3.85;2.22;;;19.00;99.20;;;;;;5071873;28;20024;-70
2021/09/27 02:05:26;;;;;;;4.03;2.03;;;19.00;99.00;;;;;;5071442;28;20417;-70
2021/09/27 02:08:23;;;;;;;3.38;2.42;;;19.30;99.60;;;;;;5072939;28;20427;-69
2021/09/27 02:11:09;;;;;;;3.50;2.45;;;19.30;99.60;;;;;;5072776;28;20032;-69
2021/09/27 02:14:06;;;;;;;3.83;2.35;;;19.10;99.90;;;;;;5071593;28;20120;-70
2021/09/27 02:17:04;;;;;;;4.28;2.10;;;18.80;99.90;;;;;;5057590;28;20044;-70
2021/09/27 02:19:47;;;;;;;5.18;2.63;;;19.40;99.90;;;;;;5072725;28;20017;-70
2021/09/27 02:22:20;;;;;;;4.70;2.50;;;19.90;99.60;;;;;;5072996;28;20017;-71
2021/09/27 02:24:48;;;;;;;3.67;1.92;;;19.70;98.90;;;;;;5072840;28;20174;-70
2021/09/27 02:27:15;;;;;;;2.17;1.92;;;20.40;98.40;;;;;;5072705;28;20070;-70
2021/09/27 02:29:42;;;;;;;5.72;2.30;;;20.50;97.90;;;;;;5072652;28;20024;-70
2021/09/27 02:32:27;;;;;;;3.85;1.92;;;20.60;97.10;;;;;;5071291;28;20043;-70
2021/09/27 02:35:15;;;;;;;3.20;1.75;;;20.30;96.50;;;;;;5072685;28;20017;-70
2021/09/27 02:37:48;;;;;;;5.38;1.70;;;20.60;96.90;;;;;;5072605;28;20087;-70
2021/09/27 02:40:45;;;;;;;3.90;1.85;;;20.60;97.00;;;;;;5072779;28;20097;-70
2021/09/27 02:43:14;;;;;;;5.20;2.30;;;20.80;96.50;;;;;;5072696;28;20029;-70
2021/09/27 02:45:45;;;;;;;3.17;2.38;;;21.00;96.30;;;;;;5072445;28;20028;-70
2021/09/27 02:48:40;;;;;;;4.82;2.65;;;20.90;95.90;;;;;;5071231;28;20070;-71
2021/09/27 02:51:09;;;;;;;3.58;2.25;;;20.30;96.40;;;;;;5071178;28;20058;-71
2021/09/27 02:53:37;;;;;;;3.55;2.10;;;20.00;97.10;;;;;;5072386;28;20031;-70
2021/09/27 02:56:14;;;;;;;3.65;2.20;;;20.50;96.40;;;;;;5072321;28;20453;-70
2021/09/27 02:59:11;;;;;;;3.75;2.35;;;20.20;96.30;;;;;;5072472;28;20025;-70
2021/09/27 03:01:50;;;;;;;3.58;2.30;;;19.90;96.10;;;;;;5058249;28;20045;-70
2021/09/27 03:04:23;;;;;;;2.60;2.33;;;19.80;96.60;;;;;;5072323;28;20020;-71
2021/09/27 03:07:03;;;;;;;2.35;2.00;;;20.40;96.80;;;;;;5074578;28;20029;-71
2021/09/27 03:09:47;;;;;;;2.80;2.55;;;20.70;96.60;;;;;;5074671;28;20024;-71
2021/09/27 03:12:48;;;;;;;3.88;2.42;;;20.50;95.20;;;;;;5076063;28;20105;-70
2021/09/27 03:15:45;;;;;;;4.32;2.28;;;20.80;95.10;;;;;;5074347;28;20036;-70
2021/09/27 03:18:34;;;;;;;2.72;1.95;;;20.80;94.70;;;;;;5075858;28;20044;-71
2021/09/27 03:21:24;;;;;;;4.13;2.47;;;20.90;94.30;;;;;;5075747;28;20396;-70
2021/09/27 03:24:11;;;;;;;4.40;2.20;;;20.40;94.50;;;;;;5075812;28;20035;-71
2021/09/27 03:27:07;;;;;;;3.17;2.03;;;20.80;94.30;;;;;;5075795;28;20066;-72
2021/09/27 03:29:52;;;;;;;3.58;2.13;;;20.80;93.10;;;;;;5075686;28;20146;-72
2021/09/27 03:32:29;;;;;;;3.15;2.00;;;20.60;93.20;;;;;;5075732;28;20052;-71
2021/09/27 03:35:34;;;;;;;3.10;2.10;;;20.50;93.60;;;;;;5075591;28;20020;-71
2021/09/27 03:38:11;;;;;;;2.67;1.90;;;19.80;93.90;;;;;;5075377;28;20035;-72
2021/09/27 03:40:58;;;;;;;3.30;2.40;;;20.10;95.10;;;;;;5075522;28;20028;-71
2021/09/27 03:43:28;;;;;;;2.08;1.90;;;19.70;94.80;;;;;;5074155;28;20036;-72
2021/09/27 03:46:03;;;;;;;2.85;1.88;;;19.80;95.90;;;;;;5075412;28;20035;-72
2021/09/27 03:48:59;;;;;;;3.05;1.90;;;20.00;96.70;;;;;;5075362;28;20016;-71
2021/09/27 03:51:48;;;;;;;2.20;2.00;;;20.40;95.30;;;;;;5069683;28;20068;-72
2021/09/27 03:54:30;;;;;;;4.20;2.20;;;20.70;94.10;;;;;;5074969;28;20485;-72
2021/09/27 03:57:13;;;;;;;3.38;2.10;;;20.40;93.90;;;;;;5073969;28;20078;-71
2021/09/27 03:59:47;;;;;;;3.60;2.33;;;20.30;94.40;;;;;;5075106;28;20389;-71
2021/09/27 04:02:50;;;;;;;2.13;2.00;;;20.10;94.00;;;;;;5075206;28;20021;-71
2021/09/27 04:05:27;;;;;;;3.10;2.00;;;19.90;94.70;;;;;;5069542;28;20040;-72
2021/09/27 04:08:06;;;;;;;3.55;1.90;;;19.60;94.50;;;;;;5075137;28;20017;-70
2021/09/27 04:10:45;;;;;;;2.75;1.98;;;19.30;95.30;;;;;;5075032;28;20031;-69
2021/09/27 04:13:31;;;;;;;2.40;2.08;;;19.20;96.00;;;;;;5073424;28;20047;-69
2021/09/27 04:16:26;;;;;;;3.45;2.20;;;19.30;95.00;;;;;;5073236;28;20578;-70
2021/09/27 04:19:18;;;;;;;4.47;2.58;;;19.30;95.40;;;;;;5075187;28;20020;-69
2021/09/27 04:22:03;;;;;;;4.68;2.40;;;19.40;95.80;;;;;;5074455;28;20374;-71
2021/09/27 04:25:11;;;;;;;2.88;2.20;;;19.30;95.50;;;;;;5074725;28;20025;-70
2021/09/27 04:28:02;;;;;;;3.42;2.10;;;19.20;95.10;;;;;;5074795;28;20455;-69
2021/09/27 04:30:49;;;;;;;3.83;2.30;;;19.40;95.00;;;;;;5074671;28;20090;-69
2021/09/27 04:33:23;;;;;;;4.35;2.15;;;19.60;95.30;;;;;;5073247;28;20119;-69
2021/09/27 04:36:05;;;;;;;4.72;2.65;;;19.50;95.90;;;;;;5074647;28;20046;-69
2021/09/27 04:38:33;;;;;;;4.57;2.30;;;19.50;95.90;;;;;;5074424;28;20032;-70
2021/09/27 04:41:26;;;;;;;4.00;2.22;;;19.50;96.10;;;;;;5072983;28;20021;-69
2021/09/27 04:44:19;;;;;;;3.00;2.40;;;19.30;95.40;;;;;;5073039;28;20046;-69
2021/09/27 04:46:49;;;;;;;2.88;1.90;;;19.20;95.60;;;;;;5074278;28;20077;-70
2021/09/27 04:49:17;;;;;;;2.28;2.05;;;19.20;95.70;;;;;;5074168;28;20311;-70
2021/09/27 04:52:06;;;;;;;5.07;2.70;;;19.30;96.20;;;;;;5074212;28;20031;-70
2021/09/27 04:55:00;;;;;;;4.25;2.20;;;19.20;96.60;;;;;;5072795;28;20025;-71
2021/09/27 04:57:35;;;;;;;3.67;2.30;;;;;;;;;;5074075;28;20040;-71
2021/09/27 05:00:02;;;;;;;3.45;2.15;;;20.20;95.60;;;;;;5072721;28;20036;-71
2021/09/27 05:02:43;;;;;;;4.05;2.75;;;20.30;94.80;;;;;;5074007;28;20086;-71
2021/09/27 05:05:38;;;;;;;3.65;2.72;;;20.00;94.90;;;;;;5073937;28;20020;-70
2021/09/27 05:08:14;;;;;;;2.67;2.10;;;20.00;95.80;;;;;;5073779;28;20024;-70
2021/09/27 05:11:04;;;;;;;5.63;2.30;;;20.00;94.60;;;;;;5073790;28;20534;-70
2021/09/27 05:14:04;;;;;;;4.15;2.35;;;20.00;94.40;;;;;;5072463;28;20021;-70
2021/09/27 05:16:54;;;;;;;2.38;2.05;;;19.80;94.50;;;;;;5072149;28;20036;-70
2021/09/27 05:19:39;;;;;;;6.35;2.58;;;19.40;94.00;;;;;;5072313;28;20074;-71
2021/09/27 05:22:33;;;;;;;4.90;2.50;;;19.20;94.00;;;;;;5073534;28;20545;-70
2021/09/27 05:25:19;;;;;;;3.13;2.30;;;19.20;94.40;;;;;;5073472;28;20064;-70
2021/09/27 05:28:10;;;;;;;2.70;2.45;;;19.20;94.60;;;;;;5073558;28;20021;-71
2021/09/27 05:31:06;;;;;;;2.58;2.20;;;19.20;94.80;;;;;;5073343;28;20389;-70
2021/09/27 05:34:11;;;;;;;5.13;2.40;;;19.00;94.70;;;;;;5053808;28;20043;-70
2021/09/27 05:36:50;;;;;;;3.75;2.60;;;19.10;95.20;;;;;;5064164;28;20132;-70
2021/09/27 05:39:20;;;;;;;2.70;2.50;;;19.10;95.70;;;;;;5071984;28;20059;-69
2021/09/27 05:42:08;;;;;;;4.03;2.78;;;19.30;95.40;;;;;;5073423;28;20020;-70
2021/09/27 05:45:05;;;;;;;3.15;2.80;;;19.20;95.30;;;;;;5071854;28;20467;-70
2021/09/27 05:47:38;;;;;;;3.65;2.55;;;19.10;95.20;;;;;;5071780;28;20390;-70
2021/09/27 05:50:26;;;;;;;3.75;2.50;;;19.00;95.30;;;;;;5073365;28;20043;-70
2021/09/27 05:53:21;;;;;;;3.10;2.00;;;19.10;94.90;;;;;;5072927;28;20036;-70
2021/09/27 05:56:01;;;;;;;4.05;2.13;;;19.30;94.80;;;;;;5073145;28;20385;-70
2021/09/27 05:58:45;;;;;;;3.00;2.70;;;19.50;94.60;;;;;;5073134;28;20025;-70
2021/09/27 06:01:27;;;;;;;4.03;2.10;;;19.60;94.80;;;;;;5073092;28;20020;-69
2021/09/27 06:04:29;;;;;;;2.40;2.20;;;19.60;95.10;;;;;;5072858;28;20027;-69
2021/09/27 06:07:06;;;;;;;4.45;2.42;;;19.50;95.10;;;;;;5040183;28;20067;-69
2021/09/27 06:10:11;;;;;;;2.70;2.40;;;19.50;95.40;;;;;;5072791;28;20469;-70
2021/09/27 06:12:50;;;;;;;3.78;2.60;;;19.30;95.30;;;;;;5072685;28;20035;-69
2021/09/27 06:15:18;;;;;;;3.50;2.28;;;19.50;95.50;;;;;;5072550;28;20043;-69
2021/09/27 06:18:19;;;;;;;4.70;2.60;;;19.10;95.20;;;;;;5071344;28;20448;-70
2021/09/27 06:20:53;;;;;;;4.30;2.45;;;18.70;95.50;;;;;;5071476;28;20025;-69
2021/09/27 06:23:46;;;;;;;2.92;2.70;;;18.60;95.60;;;;;;5072823;28;20024;-70
2021/09/27 06:26:15;;;;;;;4.50;2.38;;;18.50;95.70;;;;;;5053391;28;20039;-69
2021/09/27 06:29:04;;;;;;;4.45;2.60;;;18.50;96.20;;;;;;5072622;28;20020;-69
2021/09/27 06:32:01;;;;;;;3.30;2.80;;;18.50;96.10;;;;;;5072465;28;20536;-69
2021/09/27 06:34:42;;;;;;;2.70;2.50;;;18.20;96.20;;;;;;5071191;28;20060;-70
2021/09/27 06:37:10;;;;;;;;;;;18.10;96.90;;;;;;5073051;28;20078;-68
2021/09/27 06:39:37;;;;;;;3.30;2.40;;;18.00;97.00;;;;;;5073159;28;19913;-69
2021/09/27 06:42:05;;;;;;;4.65;2.17;;;18.10;97.30;;;;;;5076722;28;20108;-69
2021/09/27 06:44:32;;;;;;;2.88;2.58;;;18.10;96.80;;;;;;5076712;28;20392;-70
2021/09/27 06:47:00;;;;;;;3.40;2.90;;;18.10;96.40;;;;;;5076688;28;20059;-68
2021/09/27 06:49:27;;;;;;;5.68;2.95;;;18.10;96.60;;;;;;5075225;28;20059;-68
2021/09/27 06:51:55;;;;;;;3.85;2.90;;;18.20;96.80;;;;;;5075154;28;20025;-68
2021/09/27 06:54:23;;;;;;;3.25;2.50;;;18.00;96.70;;;;;;5075139;28;20025;-69
2021/09/27 06:56:51;;;;;;;3.17;2.40;;;18.10;96.90;;;;;;5076427;28;20048;-69
2021/09/27 06:59:22;;;;;;;3.20;2.30;;;18.10;97.20;;;;;;5076357;28;20019;-68
2021/09/27 07:01:50;;;;;;;3.30;2.40;;;18.20;97.20;;;;;;5074816;28;20024;-71
2021/09/27 07:04:18;;;;;;;6.65;2.45;;;18.10;97.00;;;;;;5076012;28;20016;-69
2021/09/27 07:06:45;;;;;;;4.63;2.28;;;18.10;97.20;;;;;;5076116;28;20032;-69
2021/09/27 07:09:14;;;;;;;3.92;2.47;;;17.90;97.60;;;;;;5076128;28;20385;-69
2021/09/27 07:11:43;;;;;;;4.47;2.38;;;17.60;97.90;;;;;;5075985;28;20062;-69
2021/09/27 07:14:11;;;;;;;3.35;2.30;;;17.20;98.30;;;;;;5076021;28;20495;-69
2021/09/27 07:16:39;;;;;;;5.93;2.90;;;17.00;98.90;;;;;;5075732;28;20067;-67
2021/09/27 07:19:07;;;;;;;4.40;2.30;;;16.70;99.00;;;;;;5074724;28;20107;-67
2021/09/27 07:21:36;;;;;;;3.25;2.40;;;16.60;99.40;;;;;;5075834;28;20028;-69
2021/09/27 07:24:06;;;;;;;3.80;2.10;;;16.40;99.90;;;;;;5075941;28;20017;-69
2021/09/27 07:26:34;;;;;;;3.20;2.20;;;16.40;99.90;;;;;;5075804;28;20107;-68
2021/09/27 07:29:02;;;;;;;2.42;2.10;;;16.30;99.90;;;;;;5075681;28;20020;-71
2021/09/27 07:31:31;;;;;;;3.85;2.42;;;16.20;99.90;;;;;;5075552;28;20098;-68
2021/09/27 07:34:04;;;;;;;6.00;2.30;;;16.20;99.90;;;;;;5075862;28;20396;-68
2021/09/27 07:36:31;;;;;;;3.97;3.55;;;16.10;99.90;;;;;;5076097;28;20009;-69
2021/09/27 07:38:59;;;;;;;5.57;3.08;;;16.00;99.90;;;;;;5075675;28;20392;-69
2021/09/27 07:41:29;;;;;;;2.60;2.40;;;15.90;99.90;;;;;;5075421;28;20499;-69
2021/09/27 07:43:57;;;;;;;3.22;2.28;;;15.90;99.90;;;;;;5075391;28;20103;-70
2021/09/27 07:46:24;;;;;;;3.90;2.50;;;15.80;99.90;;;;;;5075355;28;20032;-70
2021/09/27 07:48:52;;;;;;;8.13;2.70;;;15.80;99.90;;;;;;5075348;28;20389;-70
2021/09/27 07:51:21;;;;;;;3.45;3.15;;;15.60;99.90;;;;;;5074226;28;20035;-70
2021/09/27 07:53:48;;;;;;;5.75;3.03;;;15.50;99.90;;;;;;5075372;28;20591;-70
2021/09/27 07:56:17;;;;;;;4.30;2.90;;;15.50;99.90;;;;;;5075218;28;20012;-69
2021/09/27 07:58:44;;;;;;;3.42;2.50;;;15.50;99.90;;;;;;5075091;28;20020;-70
2021/09/27 08:01:13;;;;;;;5.38;3.42;;;15.50;99.90;;;;;;5075135;28;20104;-70
2021/09/27 08:03:41;;;;;;;4.68;3.05;;;15.40;99.90;;;;;;5074899;28;20377;-69
2021/09/27 08:06:09;;;;;;;4.60;2.95;;;15.30;99.90;;;;;;5074987;28;20021;-69
2021/09/27 08:08:36;;;;;;;5.43;2.70;;;15.30;99.90;;;;;;5075010;28;20114;-70
2021/09/27 08:11:04;;;;;;;3.03;2.58;;;15.20;99.90;;;;;;5074681;28;20039;-68
2021/09/27 08:13:31;;;;;;;3.92;2.30;;;15.20;99.90;;;;;;5074743;28;20016;-71
2021/09/27 08:15:59;;;;;;;4.32;2.80;;;15.20;99.90;;;;;;5073581;28;20048;-69
2021/09/27 08:18:26;;;;;;;4.55;3.38;;;15.20;99.90;;;;;;5074941;28;20074;-69
2021/09/27 08:20:57;;;;;;;5.85;2.30;;;15.20;99.90;;;;;;5074975;28;20020;-68
2021/09/27 08:23:26;;;;;;;5.32;2.92;;;15.20;99.90;;;;;;5074822;28;20119;-69
2021/09/27 08:25:55;;;;;;;4.03;3.05;;;15.20;99.90;;;;;;5074569;28;20099;-69
2021/09/27 08:28:25;;;;;;;8.85;2.80;;;15.10;99.90;;;;;;5073197;28;20126;-69
2021/09/27 08:31:03;;;;;;;5.70;2.75;;;15.10;99.90;;;;;;5073186;28;20098;-69
2021/09/27 08:33:31;;;;;;;3.35;3.00;;;15.00;99.90;;;;;;5074602;28;20073;-69
2021/09/27 08:36:02;;;;;;;4.47;2.90;;;15.00;99.90;;;;;;5074404;28;20027;-69
2021/09/27 08:38:31;;;;;;;;;;;15.00;99.90;;;;;;5073536;28;20031;-70
2021/09/27 08:41:24;;;;;;;8.45;3.08;;;14.90;99.90;;;;;;5074308;28;19909;-70
2021/09/27 08:44:10;;;;;;;8.65;3.20;;;14.90;99.90;;;;;;5068838;28;20525;-69
2021/09/27 08:46:52;;;;;;;7.60;2.80;;;14.80;99.90;;;;;;5074087;28;20068;-69
2021/09/27 08:49:29;;;;;;;3.25;2.78;;;14.80;99.90;;;;;;5074145;28;20103;-69
2021/09/27 08:51:56;;;;;;;5.85;2.80;;;14.80;99.90;;;;;;5073992;28;20025;-70
2021/09/27 08:54:29;;;;;;;4.28;3.00;;;14.80;99.90;;;;;;5072640;28;20094;-74
2021/09/27 08:57:19;;;;;;;4.75;2.70;;;14.80;99.90;;;;;;5072683;28;20020;-71
2021/09/27 09:00:25;;;;;;;4.60;3.00;;;14.80;99.90;;;;;;5034243;28;20488;-70
2021/09/27 09:02:55;;;;;;;7.68;2.35;;;14.70;99.90;;;;;;5073075;28;20044;-71
2021/09/27 09:05:32;;;;;;;5.50;2.85;;;14.70;99.90;;;;;;5072234;28;20028;-70
2021/09/27 09:08:14;;;;;;;5.70;2.88;;;14.70;99.90;;;;;;5072297;28;20032;-69
2021/09/27 09:10:48;;;;;;;2.83;2.58;;;14.70;99.90;;;;;;5072515;28;20036;-71
2021/09/27 09:13:21;;;;;;;8.85;3.53;;;14.70;99.90;;;;;;5072353;28;20035;-69
2021/09/27 09:15:58;;;;;;;9.05;3.70;;;14.60;99.90;;;;;;5071936;28;20513;-70
2021/09/27 09:18:36;;;;;;;7.28;3.20;;;14.70;99.90;;;;;;5072223;28;20189;-69
2021/09/27 09:21:09;;;;;;;6.47;3.70;;;14.70;99.90;;;;;;5073486;28;20021;-70
2021/09/27 09:23:41;;;;;;;6.72;6.03;;;14.60;99.90;;;;;;5073443;28;20594;-70
2021/09/27 09:26:17;;;;;;;5.88;3.60;;;14.60;99.90;;;;;;5073286;28;20021;-70
2021/09/27 09:28:49;;;;;;;4.38;3.67;;;14.40;99.90;;;;;;5073380;28;20027;-70
2021/09/27 09:31:23;;;;;;;7.55;3.40;;;14.40;99.90;;;;;;5073347;28;20450;-70
2021/09/27 09:33:56;;;;;;;5.30;3.80;;;14.50;99.90;;;;;;5071963;28;20025;-70
2021/09/27 09:36:34;;;;;;;8.40;3.60;;;14.50;99.90;;;;;;5072112;28;20031;-71
2021/09/27 09:39:22;;;;;;;6.65;2.90;;;14.50;99.90;;;;;;5073217;28;20481;-70
2021/09/27 09:42:15;;;;;;;5.45;3.35;;;14.60;99.90;;;;;;5073111;28;20378;-69
2021/09/27 09:44:48;;;;;;;7.85;5.47;;;14.50;99.90;;;;;;5072878;28;20032;-71
2021/09/27 09:47:30;;;;;;;8.20;4.57;;;14.50;99.90;;;;;;5073127;28;20058;-71
2021/09/27 09:50:27;;;;;;;3.85;3.00;;;14.40;99.90;;;;;;5073014;28;20047;-70
2021/09/27 09:52:59;;;;;;;6.40;2.88;;;14.40;99.90;;;;;;5072868;28;20039;-71
2021/09/27 09:55:53;;;;;;;4.97;3.13;;;14.40;99.90;;;;;;5072968;28;20020;-71
2021/09/27 09:58:35;;;;;;;6.22;3.20;;;14.40;99.90;;;;;;5072896;28;20020;-71
2021/09/27 10:01:26;;;;;;;7.25;3.67;;;14.50;99.90;;;;;;5071655;28;20385;-71
2021/09/27 10:04:09;;;;;;;3.83;2.85;;;14.50;99.90;;;;;;5072971;28;20397;-72
2021/09/27 10:06:43;;;;;;;7.70;3.50;;;14.50;99.90;;;;;;5072915;28;20389;-71
2021/09/27 10:09:33;;;;;;;7.38;3.58;;;14.40;99.90;;;;;;5072792;28;20432;-72
2021/09/27 10:12:05;;;;;;;6.07;3.28;;;14.50;99.90;;;;;;5072671;28;20044;-70
2021/09/27 10:14:35;;;;;;;3.90;3.30;;;14.50;99.90;;;;;;5072254;28;20032;-73
2021/09/27 10:17:11;;;;;;;7.35;3.60;;;14.50;99.90;;;;;;5072565;28;20051;-71
2021/09/27 10:19:53;;;;;;;4.15;3.55;;;14.50;99.90;;;;;;5072586;28;20088;-73
2021/09/27 10:22:24;;;;;;;5.88;4.03;;;14.60;99.90;;;;;;5071364;28;20114;-70
2021/09/27 10:24:58;;;;;;;4.70;3.67;;;14.50;99.90;;;;;;5072599;28;20024;-73
2021/09/27 10:27:44;;;;;;;4.90;3.95;;;14.60;99.90;;;;;;5072598;28;20027;-69
2021/09/27 10:30:24;;;;;;;7.85;5.10;;;14.50;99.90;;;;;;5072664;28;20028;-70
2021/09/27 10:32:56;;;;;;;5.82;4.13;;;14.50;99.90;;;;;;5072523;28;20585;-70
2021/09/27 10:35:33;;;;;;;7.18;4.68;;;14.60;99.90;;;;;;5072548;28;20152;-71
2021/09/27 10:38:11;;;;;;;8.68;4.82;;;14.60;99.90;;;;;;5072520;28;20146;-70
2021/09/27 10:40:41;;;;;;;6.43;4.40;;;14.80;99.90;;;;;;5072577;28;20503;-70
2021/09/27 10:43:13;;;;;;;5.60;4.53;;;14.70;99.90;;;;;;5071048;28;20031;-69
2021/09/27 10:45:43;;;;;;;5.60;4.25;;;14.80;99.90;;;;;;5072335;28;20143;-71
2021/09/27 10:48:11;;;;;;;5.65;4.07;;;14.70;99.90;;;;;;5072385;28;20032;-71
2021/09/27 10:50:45;;;;;;;8.60;4.28;;;14.70;99.90;;;;;;5072375;28;20031;-71
2021/09/27 10:53:18;;;;;;;5.13;4.25;;;14.70;99.90;;;;;;5071244;28;20477;-70
2021/09/27 10:55:54;;;;;;;6.57;4.82;;;14.70;99.90;;;;;;5072346;28;20048;-70
2021/09/27 10:58:53;;;;;;;9.60;4.85;;;14.70;99.90;;;;;;5072438;28;20096;-70
2021/09/27 11:01:53;;;;;;;7.90;5.15;;;14.70;99.90;;;;;;5070991;28;20028;-70
2021/09/27 11:04:24;;;;;;;9.15;4.80;;;14.70;99.90;;;;;;5071171;28;20027;-71
2021/09/27 11:06:55;;;;;;;;;;;14.60;99.90;;;;;;5072528;28;20031;-71
2021/09/27 11:09:38;;;;;;;6.38;5.03;;;14.60;99.90;;;;;;5070651;28;19904;-70
2021/09/27 11:12:37;;;;;;;6.50;5.40;;;14.70;99.90;;;;;;5071881;28;20025;-71
2021/09/27 11:15:35;;;;;;;6.07;5.47;;;14.70;99.90;;;;;;5070381;28;20044;-71
2021/09/27 11:18:09;;;;;;;9.88;5.55;;;14.70;99.90;;;;;;5071776;28;20116;-70
2021/09/27 11:20:40;;;;;;;11.50;5.80;;;14.80;99.90;;;;;;5072174;28;20043;-70
2021/09/27 11:23:22;;;;;;;7.68;5.70;;;14.80;99.90;;;;;;5072122;28;20063;-70
2021/09/27 11:26:19;;;;;;;6.20;5.60;;;14.90;99.90;;;;;;5070759;28;20036;-70
2021/09/27 11:28:53;;;;;;;7.88;6.40;;;15.00;99.90;;;;;;5075516;28;20029;-69
2021/09/27 11:31:27;;;;;;;8.05;6.85;;;15.00;99.90;;;;;;5074491;28;20035;-70
2021/09/27 11:33:59;;;;;;;6.78;5.68;;;15.00;99.90;;;;;;5074348;28;20671;-70
2021/09/27 11:36:48;;;;;;;8.10;5.60;;;14.90;99.90;;;;;;5075562;28;20020;-70
2021/09/27 11:39:16;;;;;;;9.00;5.95;;;14.90;99.90;;;;;;5075563;28;20557;-70
2021/09/27 11:42:14;;;;;;;7.43;5.80;;;14.90;99.90;;;;;;5075578;28;20488;-70
2021/09/27 11:45:13;;;;;;;7.32;6.43;;;14.80;99.90;;;;;;5075492;28;20033;-70
2021/09/27 11:47:46;;;;;;;6.97;6.28;;;14.80;99.90;;;;;;5075441;28;20496;-70
2021/09/27 11:50:45;;;;;;;7.95;6.85;;;14.80;99.90;;;;;;5075369;28;20128;-71
2021/09/27 11:53:15;;;;;;;6.75;6.10;;;14.80;99.90;;;;;;5075301;28;20024;-70
2021/09/27 11:55:59;;;;;;;;;;;14.90;99.90;;;;;;5075825;28;20021;-68
2021/09/27 11:58:40;;;;;;;8.75;6.60;;;14.90;99.90;;;;;;5075320;28;19904;-68
2021/09/27 12:01:19;;;;;;;6.88;6.22;;;14.90;99.90;;;;;;5075235;28;20427;-68
2021/09/27 12:03:59;;;;;;;8.55;7.03;;;14.80;99.90;;;;;;5075101;28;20102;-69
2021/09/27 12:06:48;;;;;;;8.20;6.60;;;14.80;99.90;;;;;;5075147;28;20025;-69
2021/09/27 12:09:34;;;;;;;8.75;7.18;;;14.80;99.90;;;;;;5075016;28;20027;-69
2021/09/27 12:12:03;;;;;;;7.57;6.78;;;14.90;99.90;;;;;;5075005;28;20016;-69
2021/09/27 12:14:42;;;;;;;8.38;7.07;;;14.80;99.90;;;;;;5075110;28;20044;-69
2021/09/27 12:17:15;;;;;;;9.00;7.57;;;14.80;99.90;;;;;;5074696;28;20115;-70
2021/09/27 12:20:04;;;;;;;10.90;7.35;;;14.80;99.90;;;;;;5075437;28;20039;-68
2021/09/27 12:22:42;;;;;;;11.93;7.95;;;14.90;99.90;;;;;;5073528;28;20400;-68
2021/09/27 12:25:15;;;;;;;11.13;7.40;;;15.00;99.90;;;;;;5073494;28;20043;-69
2021/09/27 12:28:01;;;;;;;7.82;7.13;;;15.00;99.90;;;;;;5074682;28;20103;-67
2021/09/27 12:30:32;;;;;;;7.43;6.70;;;15.10;99.90;;;;;;5074614;28;20505;-71
2021/09/27 12:33:04;;;;;;;11.23;7.30;;;15.10;99.90;;;;;;5074789;28;20054;-70
2021/09/27 12:35:42;;;;;;;7.07;6.50;;;15.10;99.90;;;;;;5074523;28;20029;-70
2021/09/27 12:38:09;;;;;;;9.80;6.43;;;15.10;99.90;;;;;;5074171;28;20020;-70
2021/09/27 12:40:48;;;;;;;8.00;6.20;;;15.00;99.90;;;;;;5074444;28;20023;-71
2021/09/27 12:43:30;;;;;;;7.43;6.15;;;14.90;99.90;;;;;;5074294;28;20025;-71
2021/09/27 12:46:22;;;;;;;15.32;6.43;;;14.80;99.90;;;;;;5074437;28;20491;-72
2021/09/27 12:48:59;;;;;;;7.07;6.38;;;14.70;99.90;;;;;;5073904;28;20032;-72
2021/09/27 12:51:32;;;;;;;7.35;6.57;;;14.70;99.90;;;;;;5074116;28;20099;-71
2021/09/27 12:54:01;;;;;;;6.70;5.95;;;14.60;99.90;;;;;;5074158;28;20025;-71
2021/09/27 12:56:31;;;;;;;10.52;6.13;;;14.40;99.90;;;;;;5074290;28;20031;-71
2021/09/27 12:59:14;;;;;;;7.22;6.25;;;14.50;99.90;;;;;;5074074;28;20263;-71
2021/09/27 13:01:52;;;;;;;7.45;5.90;;;14.40;99.90;;;;;;5074026;28;20042;-71
2021/09/27 13:04:34;;;;;;;8.35;6.80;;;14.30;99.90;;;;;;5074002;28;20510;-71
2021/09/27 13:07:05;;;;;;;7.40;6.30;;;14.20;99.90;;;;;;5073962;28;20052;-71
2021/09/27 13:09:38;;;;;;;7.45;6.60;;;14.10;99.90;;;;;;5074035;28;20028;-72
2021/09/27 13:12:32;;;;;;;10.00;6.53;;;14.00;99.90;;;;;;5072621;28;20389;-72
2021/09/27 13:15:12;;;;;;;7.00;6.30;;;13.90;99.90;;;;;;5072269;28;20025;-72
2021/09/27 13:18:00;;;;;;;7.50;6.80;;;13.90;99.90;;;;;;5073714;28;20485;-71
2021/09/27 13:20:33;;;;;;;6.70;6.30;;;13.90;99.90;;;;;;5073817;28;20016;-72
2021/09/27 13:23:02;;;;;;;6.68;6.05;;;13.80;99.90;;;;;;5073773;28;20091;-73
2021/09/27 13:25:45;;;;;;;7.10;5.95;;;13.80;99.90;;;;;;5073441;28;20052;-71
2021/09/27 13:28:24;;;;;;;6.90;6.13;;;13.70;99.90;;;;;;5073510;28;20021;-72
2021/09/27 13:30:59;;;;;;;7.57;5.90;;;13.70;99.90;;;;;;5071989;28;20485;-71
2021/09/27 13:33:40;;;;;;;7.63;6.75;;;13.60;99.90;;;;;;5073324;28;20094;-71
2021/09/27 13:36:40;;;;;;;6.43;5.88;;;13.60;99.90;;;;;;5072045;28;20016;-71
2021/09/27 13:39:22;;;;;;;7.30;5.80;;;13.60;99.90;;;;;;5072261;28;20033;-71
2021/09/27 13:42:05;;;;;;;9.18;5.40;;;13.50;99.90;;;;;;5073173;28;20020;-71
2021/09/27 13:44:53;;;;;;;6.57;5.93;;;13.50;99.90;;;;;;5073042;28;20021;-71
2021/09/27 13:47:27;;;;;;;6.53;5.93;;;13.50;99.90;;;;;;5072090;28;20089;-71